Data for 07/07/2010

Time Sea-Level Adjusted Pressure Absolute Pressure Temperature Relative Humidity Dew Point   
(mb) (inHg) (mb) (inHg) (C) (F) (%) (C) (F)
00:05 1024 30.24 854 25.22 8.3 46.9 75 4.1 39.5
00:10 1024 30.24 854 25.22 8.3 47 75 4.1 39.4
00:15 1025 30.27 854 25.22 8.3 47 75 4.2 39.5
00:20 1025 30.27 854 25.22 8.3 46.9 75 4.1 39.3
00:25 1025 30.27 854 25.22 8.2 46.8 74 3.9 39.1
00:30 1025 30.27 854 25.22 8.2 46.8 75 4 39.3
00:35 1025 30.27 854 25.22 7.9 46.3 75 3.8 38.9
00:40 1025 30.27 854 25.22 8 46.4 75 3.8 38.8
00:45 1025 30.27 854 25.22 8 46.4 75 3.7 38.7
00:50 1025 30.27 854 25.22 7.9 46.1 75 3.7 38.6
00:55 1025 30.27 854 25.22 7.7 45.9 75 3.5 38.4
01:00 1025 30.27 854 25.22 7.8 46.1 74 3.4 38.1
01:05 1025 30.27 854 25.22 8.1 46.5 73 3.6 38.4
01:10 1025 30.27 854 25.22 8 46.4 73 3.5 38.4
01:15 1025 30.27 854 25.22 8 46.4 73 3.4 38.2
01:20 1025 30.27 854 25.22 8 46.4 73 3.4 38.1
01:25 1025 30.27 854 25.22 8 46.3 73 3.4 38.1
01:30 1025 30.27 854 25.22 7.7 45.9 73 3.3 37.9
01:35 1025 30.27 854 25.22 7.7 45.9 73 3.2 37.8
01:40 1025 30.27 854 25.22 7.7 45.9 73 3.2 37.8
01:45 1025 30.27 854 25.22 7.8 46 72 3.1 37.6
01:50 1025 30.27 854 25.22 7.9 46.3 72 3.1 37.6
01:55 1025 30.27 854 25.22 8.1 46.6 71 3.3 37.9
02:00 1025 30.27 854 25.22 7.9 46.3 72 3.3 37.9
02:05 1025 30.27 854 25.22 7.8 46.1 73 3.3 37.9
02:10 1025 30.27 854 25.22 7.8 46.1 72 3.2 37.7
02:15 1025 30.27 854 25.22 7.8 46 72 3 37.4
02:20 1025 30.27 854 25.22 7.7 45.8 72 3 37.4
02:25 1025 30.27 854 25.22 7.4 45.4 73 3 37.4
02:30 1025 30.27 854 25.22 7.4 45.3 73 2.8 37
02:35 1025 30.27 854 25.22 7.5 45.4 72 2.8 37.1
02:40 1025 30.27 854 25.22 7.4 45.3 73 3 37.4
02:45 1025 30.27 854 25.22 7.2 45 74 2.9 37.3
02:50 1025 30.27 854 25.22 7.2 45 73 2.7 36.9
02:55 1025 30.27 854 25.22 7.4 45.3 73 2.9 37.2
03:00 1025 30.27 854 25.22 7.3 45.1 72 2.6 36.7
03:05 1025 30.27 854 25.22 7.4 45.3 70 2.3 36.2
03:10 1025 30.27 854 25.22 7.4 45.3 72 2.8 37
03:15 1025 30.27 854 25.22 7.1 44.8 73 2.7 36.8
03:20 1025 30.27 854 25.22 7.1 44.8 74 2.8 37
03:25 1025 30.27 854 25.22 7 44.6 73 2.6 36.6
03:30 1025 30.27 854 25.22 7.2 44.9 73 2.6 36.7
03:35 1025 30.27 854 25.22 7.2 44.9 73 2.6 36.8
03:40 1025 30.27 854 25.22 7.1 44.7 74 2.7 36.9
03:45 1025 30.27 854 25.22 6.8 44.2 74 2.6 36.7
03:50 1025 30.27 854 25.22 6.9 44.4 74 2.5 36.5
03:55 1025 30.27 854 25.22 6.7 44 75 2.5 36.5
04:00 1025 30.27 854 25.22 6.6 43.9 76 2.7 36.9
04:05 1025 30.27 854 25.22 6.3 43.3 75 2.3 36.1
04:10 1025 30.27 854 25.22 6.3 43.3 76 2.3 36.1
04:15 1025 30.27 854 25.22 6.4 43.5 76 2.5 36.5
04:20 1025 30.27 854 25.22 6.5 43.6 75 2.4 36.4
04:25 1025 30.27 854 25.22 6.5 43.8 76 2.6 36.7
04:30 1025 30.27 854 25.22 6.3 43.4 76 2.3 36.2
04:35 1025 30.27 854 25.22 6.4 43.5 77 2.6 36.6
04:40 1025 30.27 854 25.22 6.2 43.1 77 2.4 36.4
04:45 1025 30.27 854 25.22 6.1 43 77 2.3 36.2
04:50 1025 30.27 854 25.22 6.1 43 77 2.3 36.2
04:55 1025 30.27 854 25.22 6 42.8 77 2.3 36.1
05:00 1025 30.27 854 25.22 6 42.8 77 2.3 36.1
05:05 1025 30.27 854 25.22 5.9 42.6 77 2.2 36
05:10 1025 30.27 854 25.22 5.9 42.6 78 2.3 36.1
05:15 1025 30.27 854 25.22 5.9 42.7 77 2.2 36
05:20 1025 30.27 854 25.22 5.7 42.3 78 2.2 36
05:25 1025 30.27 854 25.22 5.6 42 78 2.1 35.8
05:30 1025 30.27 854 25.22 5.5 41.9 79 2.1 35.7
05:35 1025 30.27 854 25.22 5.5 41.9 78 2 35.6
05:40 1025 30.27 854 25.22 5.7 42.3 78 2.1 35.8
05:45 1025 30.27 855 25.25 5.9 42.5 77 2.1 35.8
05:50 1025 30.27 855 25.25 6 42.8 77 2.3 36.1
05:55 1026 30.3 855 25.25 6 42.7 77 2.3 36.1
06:00 1026 30.3 855 25.25 6.1 43 75 2.1 35.8
06:05 1026 30.3 855 25.25 6.2 43.2 75 2.1 35.9
06:10 1026 30.3 855 25.25 6.3 43.3 74 2 35.6
06:15 1025 30.27 855 25.25 6.5 43.8 73 2 35.7
06:20 1026 30.3 855 25.25 6.8 44.2 72 2.2 35.9
06:25 1026 30.3 855 25.25 6.9 44.5 72 2.2 36
06:30 1026 30.3 855 25.25 7.2 45 71 2.4 36.3
06:35 1026 30.3 855 25.25 7.2 45 72 2.5 36.5
06:40 1026 30.3 855 25.25 7.3 45.2 71 2.5 36.5
06:45 1026 30.3 855 25.25 7.4 45.3 72 2.6 36.7
06:50 1026 30.3 855 25.25 7.5 45.4 71 2.6 36.6
06:55 1026 30.3 855 25.25 7.6 45.6 71 2.7 36.8
07:00 1026 30.3 855 25.25 7.6 45.7 71 2.6 36.7
07:05 1026 30.3 855 25.25 7.7 45.8 70 2.7 36.8
07:10 1026 30.3 855 25.25 7.9 46.2 70 2.9 37.2
07:15 1026 30.3 855 25.25 8.1 46.6 70 2.9 37.2
07:20 1026 30.3 855 25.25 8.4 47.2 68 2.8 37.1
07:25 1026 30.3 855 25.25 8.6 47.5 66 2.7 36.9
07:30 1026 30.3 855 25.25 8.8 47.8 66 2.8 37.1
07:35 1026 30.3 855 25.25 9.3 48.7 63 2.7 36.8
07:40 1026 30.3 855 25.25 9.7 49.4 63 2.9 37.3
07:45 1026 30.3 855 25.25 9.9 49.8 63 3.2 37.8
07:50 1026 30.3 855 25.25 10.3 50.5 61 3.2 37.8
07:55 1026 30.3 855 25.25 10.7 51.3 61 3.6 38.5
08:00 1026 30.3 855 25.25 10.9 51.7 61 3.8 38.8
08:05 1026 30.3 855 25.25 11.1 52 60 3.7 38.7
08:10 1026 30.3 855 25.25 11.5 52.7 59 3.8 38.9
08:15 1026 30.3 855 25.25 11.7 53 60 4.3 39.7
08:20 1026 30.3 855 25.25 11.2 52.1 60 3.7 38.7
08:25 1026 30.3 855 25.25 11.4 52.4 59 3.6 38.5
08:30 1026 30.3 855 25.25 12.2 54 56 3.8 38.8
08:35 1026 30.3 855 25.25 12.9 55.3 52 3.3 38
08:40 1026 30.3 855 25.25 13.2 55.7 52 3.7 38.7
08:45 1026 30.3 855 25.25 13.4 56.1 51 3.6 38.6
08:50 1026 30.3 855 25.25 13.7 56.6 53 4.4 39.9
08:55 1026 30.3 855 25.25 13.6 56.5 53 4.4 39.9
09:00 1026 30.3 855 25.25 13.8 56.9 51 4.1 39.3
09:05 1026 30.3 855 25.25 14.3 57.8 50 4.2 39.6
09:10 1026 30.3 855 25.25 14.2 57.6 53 5 41
09:15 1026 30.3 855 25.25 13.4 56.1 52 3.9 39
09:20 1026 30.3 855 25.25 14.3 57.7 51 4.3 39.8
09:25 1026 30.3 855 25.25 14.8 58.7 50 4.7 40.4
09:30 1026 30.3 855 25.25 15 58.9 50 4.7 40.5
09:35 1026 30.3 855 25.25 15 59 50 4.7 40.4
09:40 1026 30.3 855 25.25 14.7 58.4 52 4.9 40.8
09:45 1026 30.3 855 25.25 14.6 58.3 54 5.4 41.7
09:50 1026 30.3 855 25.25 14.1 57.3 53 4.7 40.5
09:55 1026 30.3 855 25.25 14.6 58.3 54 5.6 42
10:00 1026 30.3 855 25.25 14.7 58.5 51 4.7 40.5
10:05 1026 30.3 855 25.25 15.3 59.5 50 5 41
10:10 1026 30.3 855 25.25 15.4 59.7 49 4.9 40.8
10:15 1026 30.3 855 25.25 15.4 59.8 53 5.9 42.7
10:20 1026 30.3 855 25.25 14.9 58.7 51 4.9 40.9
10:25 1026 30.3 855 25.25 14.9 58.8 52 5.3 41.5
10:30 1026 30.3 855 25.25 15.2 59.4 48 4.4 39.9
10:35 1026 30.3 855 25.25 15.8 60.4 49 5.2 41.3
10:40 1026 30.3 855 25.25 15.3 59.6 49 4.8 40.6
10:45 1026 30.3 855 25.25 16 60.7 46 4.5 40
10:50 1026 30.3 855 25.25 16.7 62.1 45 4.8 40.7
10:55 1026 30.3 855 25.25 16.9 62.4 45 5.2 41.3
11:00 1026 30.3 855 25.25 16.8 62.3 45 4.8 40.6
11:05 1026 30.3 855 25.25 17.3 63.1 44 5 41.1
11:10 1026 30.3 855 25.25 17.2 63 45 5.4 41.6
11:15 1026 30.3 855 25.25 16.6 61.8 46 5.1 41.2
11:20 1026 30.3 855 25.25 16.6 61.9 49 5.8 42.5
11:25 1025 30.27 855 25.25 16.7 62.1 44 4.6 40.2
11:30 1025 30.27 855 25.25 17.9 64.3 43 5.4 41.8
11:35 1026 30.3 855 25.25 17 62.7 45 5.2 41.4
11:40 1025 30.27 855 25.25 16.9 62.4 45 4.9 40.8
11:45 1025 30.27 855 25.25 17.6 63.8 42 4.6 40.4
11:50 1025 30.27 855 25.25 17.9 64.2 41 4.7 40.5
11:55 1025 30.27 855 25.25 18.3 65 40 4.6 40.3
12:00 1025 30.27 855 25.25 17.6 63.7 44 5.4 41.8
12:05 1025 30.27 855 25.25 17 62.7 45 5.2 41.4
12:10 1025 30.27 855 25.25 17.6 63.7 43 5 41
12:15 1025 30.27 855 25.25 18.7 65.6 40 5.1 41.1
12:20 1025 30.27 855 25.25 19 66.2 41 5.6 42.2
12:25 1025 30.27 855 25.25 17.5 63.4 43 4.9 40.8
12:30 1025 30.27 855 25.25 18.7 65.6 37 3.9 39.1
12:35 1025 30.27 855 25.25 19.8 67.7 37 5 41.1
12:40 1025 30.27 854 25.22 19.5 67.2 36 4.2 39.5
12:45 1025 30.27 854 25.22 19.7 67.5 36 4.5 40.2
12:50 1025 30.27 854 25.22 18.9 66 35 3.3 37.9
12:55 1025 30.27 854 25.22 18.6 65.5 36 3.4 38
13:00 1025 30.27 854 25.22 19.7 67.5 33 3.1 37.6
13:05 1025 30.27 854 25.22 20 67.9 32 3.1 37.6
13:10 1025 30.27 854 25.22 19.9 67.8 33 3.1 37.6
13:15 1025 30.27 854 25.22 19.8 67.7 32 2.9 37.2
13:20 1025 30.27 854 25.22 20.4 68.7 31 2.9 37.1
13:25 1025 30.27 854 25.22 20.4 68.8 31 2.9 37.3
13:30 1025 30.27 854 25.22 20.4 68.7 33 3.7 38.6
13:35 1025 30.27 854 25.22 20.2 68.4 33 3.5 38.2
13:40 1025 30.27 854 25.22 20.5 68.8 31 3.1 37.6
13:45 1025 30.27 854 25.22 20.4 68.8 31 2.8 37
13:50 1025 30.27 854 25.22 21.2 70.1 32 4.1 39.3
13:55 1025 30.27 854 25.22 20.9 69.6 35 5 41
14:00 1025 30.27 854 25.22 19.7 67.5 35 4.2 39.5
14:05 1025 30.27 854 25.22 19.8 67.7 34 3.6 38.5
14:10 1025 30.27 854 25.22 20 68 32 2.9 37.3
14:15 1025 30.27 854 25.22 21 69.8 32 4 39.2
14:20 1025 30.27 854 25.22 21.3 70.4 31 3.8 38.9
14:25 1025 30.27 854 25.22 21.8 71.3 32 4.4 40
14:30 1025 30.27 854 25.22 21.6 70.8 32 4.4 40
14:35 1025 30.27 854 25.22 21.3 70.3 28 2.1 35.9
14:40 1025 30.27 854 25.22 21.9 71.4 31 4 39.2
14:45 1025 30.27 854 25.22 21.7 71.1 33 4.8 40.6
14:50 1025 30.27 854 25.22 20.5 68.9 33 4.1 39.3
14:55 1025 30.27 854 25.22 20.6 69.1 33 3.9 39
15:00 1025 30.27 854 25.22 21.9 71.4 30 3.7 38.6
15:05 1025 30.27 854 25.22 22.4 72.4 30 4.3 39.8
15:10 1025 30.27 854 25.22 21 69.7 32 3.6 38.5
15:15 1025 30.27 854 25.22 21.9 71.5 30 3.6 38.4
15:20 1025 30.27 854 25.22 22.4 72.2 30 4.1 39.3
15:25 1025 30.27 854 25.22 22.1 71.8 28 2.9 37.3
15:30 1025 30.27 854 25.22 22.4 72.3 30 4.1 39.3
15:35 1024 30.24 854 25.22 22.2 71.9 29 3.3 38
15:40 1024 30.24 854 25.22 21.6 70.9 31 3.9 39
15:45 1024 30.24 854 25.22 21.5 70.7 31 3.8 38.8
15:50 1024 30.24 854 25.22 21.3 70.3 31 3.7 38.7
15:55 1024 30.24 854 25.22 20.7 69.3 31 3.3 38
16:00 1024 30.24 853 25.19 20.7 69.3 32 3.4 38.1
16:05 1024 30.24 853 25.19 21.3 70.3 28 2.3 36.1
16:10 1024 30.24 853 25.19 22.6 72.7 27 3 37.3
16:15 1024 30.24 853 25.19 23.3 73.9 27 3.3 38
16:20 1024 30.24 853 25.19 23 73.4 26 2.6 36.7
16:25 1024 30.24 853 25.19 23.3 73.9 27 3.5 38.3
16:30 1024 30.24 853 25.19 23.1 73.7 26 3 37.5
16:35 1024 30.24 853 25.19 23.8 74.8 27 3.8 38.8
16:40 1024 30.24 853 25.19 23.4 74.2 28 4 39.2
16:45 1024 30.24 853 25.19 23.3 73.9 27 3.3 38
16:50 1024 30.24 853 25.19 23 73.4 29 4 39.2
16:55 1024 30.24 853 25.19 22.7 72.9 29 4 39.1
17:00 1024 30.24 853 25.19 23.1 73.6 28 3.6 38.6
17:05 1024 30.24 853 25.19 23.4 74 27 3.7 38.6
17:10 1024 30.24 853 25.19 23.6 74.5 27 3.7 38.7
17:15 1024 30.24 853 25.19 23.3 74 28 4 39.2
17:20 1024 30.24 853 25.19 23.1 73.6 28 4 39.2
17:25 1024 30.24 853 25.19 23.5 74.2 27 3.8 38.9
17:30 1024 30.24 853 25.19 23.1 73.6 30 4.6 40.3
17:35 1024 30.24 853 25.19 22.9 73.1 28 3.7 38.6
17:40 1024 30.24 853 25.19 22.6 72.7 28 3.6 38.4
17:45 1024 30.24 853 25.19 22.9 73.2 27 3.2 37.7
17:50 1024 30.24 853 25.19 22.6 72.7 29 3.9 39
17:55 1024 30.24 853 25.19 21.5 70.6 29 2.9 37.3
18:00 1024 30.24 853 25.19 22.2 71.9 27 2.7 36.9
18:05 1024 30.24 853 25.19 22.7 72.8 27 3.1 37.6
18:10 1024 30.24 853 25.19 21.9 71.5 27 2.4 36.3
18:15 1024 30.24 853 25.19 22.5 72.6 26 2.5 36.5
18:20 1024 30.24 853 25.19 23 73.4 25 2.3 36.2
18:25 1024 30.24 853 25.19 23.1 73.6 25 2.4 36.3
18:30 1024 30.24 853 25.19 22.5 72.5 26 2.3 36.2
18:35 1024 30.24 853 25.19 21.9 71.5 27 2.4 36.3
18:40 1024 30.24 853 25.19 22.4 72.3 25 1.5 34.6
18:45 1024 30.24 853 25.19 22.5 72.4 26 2.3 36.1
18:50 1024 30.24 853 25.19 22 71.6 27 2.2 36
18:55 1024 30.24 853 25.19 21.2 70.2 27 1.7 35.1
19:00 1024 30.24 853 25.19 21.6 71 26 1.6 34.9
19:05 1024 30.24 853 25.19 21.6 70.8 27 1.8 35.2
19:10 1024 30.24 853 25.19 22 71.6 27 2.3 36.2
19:15 1024 30.24 853 25.19 22.1 71.8 26 2.2 35.9
19:20 1024 30.24 853 25.19 22 71.5 26 1.6 34.9
19:25 1024 30.24 853 25.19 22.2 71.9 26 1.8 35.3
19:30 1024 30.24 853 25.19 21.7 71 27 2.2 35.9
19:35 1024 30.24 853 25.19 21 69.9 27 1.6 34.9
19:40 1024 30.24 853 25.19 21.1 69.9 27 1.4 34.5
19:45 1024 30.24 853 25.19 20.8 69.4 28 1.7 35.1
19:50 1024 30.24 853 25.19 20.6 69.1 28 1.8 35.3
19:55 1024 30.24 853 25.19 20.5 69 28 1.7 35
20:00 1024 30.24 853 25.19 20.4 68.7 28 1.6 34.9
20:05 1024 30.24 853 25.19 20.4 68.7 28 1.5 34.8
20:10 1024 30.24 853 25.19 20.4 68.7 29 1.7 35
20:15 1024 30.24 853 25.19 20.2 68.4 29 1.8 35.2
20:20 1024 30.24 853 25.19 20.2 68.3 28 1.3 34.4
20:25 1024 30.24 853 25.19 20.1 68.2 28 1.2 34.1
20:30 1024 30.24 853 25.19 20 68 29 1.5 34.6
20:35 1024 30.24 853 25.19 19.8 67.7 30 2 35.7
20:40 1024 30.24 853 25.19 19.6 67.3 29 1.5 34.7
20:45 1024 30.24 853 25.19 19.5 67.1 30 1.7 35
20:50 1024 30.24 853 25.19 19.3 66.7 31 1.8 35.3
20:55 1024 30.24 853 25.19 19 66.2 32 1.9 35.5
21:00 1024 30.24 853 25.19 18.8 65.8 33 2.1 35.8
21:05 1024 30.24 853 25.19 18.5 65.3 34 2.3 36.2
21:10 1024 30.24 853 25.19 18.3 64.9 35 2.5 36.5
21:15 1024 30.24 853 25.19 18 64.3 36 2.8 37.1
21:20 1024 30.24 853 25.19 17.6 63.8 37 3.1 37.5
21:25 1024 30.24 853 25.19 17.3 63.2 40 3.6 38.5
21:30 1024 30.24 854 25.22 16.8 62.3 42 4 39.2
21:35 1024 30.24 854 25.22 16.5 61.7 41 3.1 37.7
21:40 1024 30.24 854 25.22 16.4 61.4 40 2.8 37
21:45 1024 30.24 854 25.22 16.2 61.1 40 2.6 36.6
21:50 1024 30.24 854 25.22 15.9 60.6 40 2.6 36.6
21:55 1024 30.24 854 25.22 15.5 60 42 2.6 36.7
22:00 1025 30.27 854 25.22 15.2 59.3 43 2.7 36.8
22:05 1025 30.27 854 25.22 14.9 58.8 44 2.7 36.9
22:10 1025 30.27 854 25.22 14.6 58.3 45 3 37.4
22:15 1025 30.27 854 25.22 14.4 57.9 45 2.7 36.8
22:20 1025 30.27 854 25.22 14.3 57.7 45 2.6 36.6
22:25 1025 30.27 854 25.22 14.1 57.3 46 2.7 36.9
22:30 1025 30.27 854 25.22 13.8 56.8 47 2.8 37
22:35 1025 30.27 854 25.22 13.6 56.4 48 2.8 37
22:40 1025 30.27 854 25.22 13.5 56.3 46 2.2 35.9
22:45 1025 30.27 854 25.22 13.6 56.5 46 2.4 36.3
22:50 1025 30.27 854 25.22 13.6 56.5 45 1.8 35.3
22:55 1025 30.27 854 25.22 13.6 56.5 45 1.9 35.5
23:00 1025 30.27 854 25.22 13.5 56.3 45 1.8 35.2
23:05 1025 30.27 854 25.22 13.4 56.1 45 1.9 35.5
23:10 1025 30.27 854 25.22 13.2 55.8 47 2.3 36.2
23:15 1025 30.27 854 25.22 13.1 55.5 49 2.6 36.7
23:20 1025 30.27 854 25.22 12.5 54.6 52 3.1 37.6
23:25 1025 30.27 854 25.22 12 53.7 51 2.3 36.1
23:30 1025 30.27 854 25.22 12.3 54.1 49 2 35.6
23:35 1025 30.27 854 25.22 12.4 54.2 49 1.9 35.5
23:40 1025 30.27 854 25.22 12.5 54.6 47 1.6 34.8
23:45 1025 30.27 854 25.22 12.8 55 46 1.5 34.7
23:50 1025 30.27 854 25.22 12.8 55.1 47 1.8 35.2
23:55 1025 30.27 854 25.22 12.7 54.9 48 2 35.7
24:00 1025 30.27 854 25.22 12.7 54.9 46 1.4 34.5